Aviation Digital Data Service (ADDS)

Output produced by METARs form (0938 UTC 01 November 2014)
found at http://aviationweather.gov/adds/metars/
 
KVQQ 010523Z 0106/0206 29009KT P6SM SCT100 
     FM010900 31015G25KT P6SM SCT050 
     TEMPO 0109/0111 BKN050 
     FM011400 30023G35KT P6SM FEW040 
     FM012200 30013G23KT P6SM SKC 
     FM020100 30010KT P6SM SKC